LFVP

St Pierre Airport

ICAO Code LFVP
IATA Code FSP
Name St Pierre Airport
Location Saint-Pierre, , PM
Elevation 27 Feet / 8.2 Meters
Latitude 46.76290131
Longitude -56.17309952
METAR LFVP 100130Z AUTO 04016KT 9999 FEW005 BKN010 OVC015 03/02 Q1018
Extra information Display NOTAMS
Display Charts
Runway Length Width Surface Elevation
08 5900 ft 150 ft ASP 27 ft
26 5900 ft 150 ft ASP 17 ft